Time;durP1;ratioP1;P1;durP2;ratioP2;P2;SDS_P1;SDS_P2;PMS_P1;PMS_P2;Temp;Humidity;BMP_temperature;BMP_pressure;BME280_temperature;BME280_humidity;BME280_pressure;Samples;Min_cycle;Max_cycle;Signal;HPM_P1;HPM_P2
2023/12/05 06:00:22;;;;;;;8.70;4.68;;;3.30;91.10;;;;;;4931791;23;20121;-82
2023/12/05 06:02:23;;;;;;;6.88;3.05;;;3.40;91.00;;;;;;4074335;29;20060;-82
2023/12/05 06:04:25;;;;;;;5.32;2.38;;;3.40;90.80;;;;;;4075896;29;20111;-82
2023/12/05 06:06:27;;;;;;;7.47;2.85;;;3.40;90.80;;;;;;4082332;29;20052;-81
2023/12/05 06:08:29;;;;;;;5.88;2.63;;;3.50;90.80;;;;;;4079574;29;20059;-82
2023/12/05 06:10:31;;;;;;;7.90;3.78;;;3.50;90.70;;;;;;4073197;29;20052;-82
2023/12/05 06:12:33;;;;;;;7.07;4.22;;;3.50;90.40;;;;;;4075141;29;20099;-84
2023/12/05 06:14:35;;;;;;;6.90;3.67;;;3.50;89.90;;;;;;4076053;29;20056;-81
2023/12/05 06:16:38;;;;;;;6.88;2.22;;;3.50;90.30;;;;;;4076885;29;20509;-82
2023/12/05 06:18:39;;;;;;;4.65;2.30;;;3.50;90.40;;;;;;4076416;29;20115;-82
2023/12/05 06:20:41;;;;;;;4.78;1.88;;;3.60;90.20;;;;;;4074546;29;20052;-82
2023/12/05 06:22:43;;;;;;;7.10;3.85;;;3.60;90.20;;;;;;4075047;29;20052;-82
2023/12/05 06:24:45;;;;;;;4.68;2.42;;;3.60;89.80;;;;;;4074541;29;20052;-82
2023/12/05 06:26:47;;;;;;;4.65;2.17;;;3.60;89.70;;;;;;4073826;29;20044;-83
2023/12/05 06:28:49;;;;;;;5.53;2.95;;;3.60;90.00;;;;;;4072753;29;20052;-83
2023/12/05 06:30:51;;;;;;;7.28;4.25;;;3.60;89.70;;;;;;4071401;29;20051;-82
2023/12/05 06:32:55;;;;;;;6.57;4.20;;;3.60;89.00;;;;;;4071119;29;20428;-81
2023/12/05 06:34:56;;;;;;;10.52;4.30;;;3.60;88.70;;;;;;4070995;29;20497;-81
2023/12/05 06:36:58;;;;;;;5.57;2.35;;;3.60;88.60;;;;;;4071322;29;20103;-81
2023/12/05 06:39:00;;;;;;;7.68;3.40;;;3.60;89.30;;;;;;4071210;29;20135;-82
2023/12/05 06:41:03;;;;;;;6.63;2.60;;;3.60;89.30;;;;;;4071843;29;20117;-82
2023/12/05 06:43:05;;;;;;;5.07;1.73;;;3.60;89.10;;;;;;4071761;29;20131;-81
2023/12/05 06:45:08;;;;;;;5.43;1.70;;;3.70;89.70;;;;;;4071485;29;20100;-82
2023/12/05 06:47:10;;;;;;;5.63;2.30;;;3.70;89.70;;;;;;4071293;29;20048;-82
2023/12/05 06:49:13;;;;;;;5.60;3.40;;;3.70;89.10;;;;;;4071297;29;20049;-80
2023/12/05 06:51:18;;;;;;;4.30;2.38;;;3.70;88.10;;;;;;4071227;29;20067;-82
2023/12/05 06:53:20;;;;;;;6.05;2.50;;;3.80;88.60;;;;;;4071152;29;20477;-80
2023/12/05 06:55:22;;;;;;;3.72;1.65;;;3.80;88.70;;;;;;4071108;29;20051;-81
2023/12/05 06:57:24;;;;;;;4.55;1.65;;;3.90;88.90;;;;;;4071041;29;20055;-80
2023/12/05 06:59:25;;;;;;;5.47;1.90;;;3.90;89.00;;;;;;4071150;29;20064;-81
2023/12/05 07:01:27;;;;;;;5.00;1.90;;;3.90;88.70;;;;;;4070877;29;20454;-80
2023/12/05 07:03:31;;;;;;;6.28;2.17;;;3.90;88.50;;;;;;4071080;29;20060;-80
2023/12/05 07:05:34;;;;;;;12.55;1.92;;;4.00;88.40;;;;;;4070784;29;20052;-80
2023/12/05 07:07:35;;;;;;;4.30;2.08;;;4.00;88.20;;;;;;4070904;29;20186;-80
2023/12/05 07:09:37;;;;;;;5.72;1.80;;;4.10;88.00;;;;;;4070514;29;20075;-82
2023/12/05 07:11:38;;;;;;;4.10;1.80;;;4.10;87.90;;;;;;4070654;29;20048;-80
2023/12/05 07:13:40;;;;;;;6.20;2.20;;;4.20;87.50;;;;;;4070781;29;20480;-81
2023/12/05 07:15:43;;;;;;;5.03;2.15;;;4.20;87.40;;;;;;4069663;29;20048;-80
2023/12/05 07:17:45;;;;;;;6.03;2.15;;;4.20;87.50;;;;;;4072765;29;20056;-81
2023/12/05 07:19:46;;;;;;;5.32;1.85;;;4.20;87.40;;;;;;4074092;29;20116;-83
2023/12/05 07:21:50;;;;;;;5.13;2.08;;;4.30;87.50;;;;;;4073848;29;20079;-81
2023/12/05 07:23:52;;;;;;;5.25;2.08;;;4.30;87.10;;;;;;4073539;29;20052;-82
2023/12/05 07:25:56;;;;;;;3.63;1.80;;;4.30;87.00;;;;;;4069250;29;20048;-82
2023/12/05 07:27:57;;;;;;;4.15;1.80;;;4.30;87.00;;;;;;4071030;29;20441;-81
2023/12/05 07:29:59;;;;;;;4.22;1.80;;;4.30;86.50;;;;;;4070892;29;20127;-81
2023/12/05 07:32:01;;;;;;;3.55;1.92;;;4.30;86.30;;;;;;4070948;29;20557;-81
2023/12/05 07:34:02;;;;;;;5.28;2.15;;;4.40;86.50;;;;;;4070214;29;20139;-81
2023/12/05 07:36:05;;;;;;;4.35;1.98;;;4.40;86.10;;;;;;4069677;29;20383;-83
2023/12/05 07:38:08;;;;;;;4.40;2.22;;;4.40;85.40;;;;;;4070421;29;20103;-80
2023/12/05 07:40:11;;;;;;;6.50;2.72;;;4.40;85.00;;;;;;4070509;29;20390;-81
2023/12/05 07:42:13;;;;;;;4.15;2.05;;;4.40;84.70;;;;;;4070253;29;20052;-81
2023/12/05 07:44:15;;;;;;;6.13;2.35;;;4.50;84.70;;;;;;4071082;29;20080;-81
2023/12/05 07:46:18;;;;;;;6.03;2.00;;;4.50;84.40;;;;;;4070244;29;20116;-82
2023/12/05 07:48:19;;;;;;;6.13;2.90;;;4.50;84.00;;;;;;4070647;29;20044;-81
2023/12/05 07:50:21;;;;;;;6.20;2.38;;;4.60;83.80;;;;;;4070332;29;20550;-82
2023/12/05 07:52:22;;;;;;;6.53;2.53;;;4.50;83.50;;;;;;4070243;29;20048;-81
2023/12/05 07:54:26;;;;;;;5.30;2.50;;;4.60;83.20;;;;;;4070426;29;20056;-80
2023/12/05 07:56:27;;;;;;;4.88;2.10;;;4.60;83.00;;;;;;4071238;29;20532;-81
2023/12/05 07:58:29;;;;;;;5.20;2.22;;;4.60;82.90;;;;;;4071158;29;20056;-81
2023/12/05 08:00:31;;;;;;;5.07;2.10;;;4.60;82.40;;;;;;4070560;29;20044;-81
2023/12/05 08:02:33;;;;;;;4.47;2.17;;;4.70;82.50;;;;;;4073364;29;20080;-81
2023/12/05 08:04:34;;;;;;;6.03;1.95;;;4.70;82.30;;;;;;4075956;29;20119;-82
2023/12/05 08:06:35;;;;;;;7.32;2.50;;;4.80;82.30;;;;;;4073785;29;20060;-81
2023/12/05 08:08:36;;;;;;;6.50;2.35;;;4.80;82.30;;;;;;4071266;29;20123;-82
2023/12/05 08:10:39;;;;;;;4.70;2.10;;;4.80;81.90;;;;;;4070432;29;20052;-82
2023/12/05 08:12:41;;;;;;;4.03;2.00;;;4.80;81.80;;;;;;4070424;29;20084;-81
2023/12/05 08:14:42;;;;;;;3.33;1.75;;;4.90;81.50;;;;;;4070467;29;20107;-82
2023/12/05 08:16:45;;;;;;;4.20;1.90;;;4.90;81.20;;;;;;4071978;29;20076;-84
2023/12/05 08:18:47;;;;;;;5.15;1.75;;;5.00;81.20;;;;;;4073849;29;20095;-81
2023/12/05 08:20:50;;;;;;;4.57;1.70;;;5.00;80.90;;;;;;4073199;29;20080;-81
2023/12/05 08:22:52;;;;;;;3.75;1.50;;;5.00;80.60;;;;;;4074409;29;20060;-80
2023/12/05 08:24:53;;;;;;;4.53;1.80;;;5.10;80.30;;;;;;4072896;29;20107;-81
2023/12/05 08:26:57;;;;;;;4.40;1.30;;;5.20;80.40;;;;;;4072582;29;20542;-83
2023/12/05 08:28:58;;;;;;;3.97;1.50;;;5.20;80.30;;;;;;4072884;29;20048;-81
2023/12/05 08:31:00;;;;;;;6.72;1.38;;;5.30;79.20;;;;;;4071605;29;20387;-82
2023/12/05 08:33:02;;;;;;;4.70;1.60;;;5.30;78.90;;;;;;4072991;29;20048;-85
2023/12/05 08:35:07;;;;;;;3.90;1.52;;;5.30;78.90;;;;;;4070500;29;20107;-82
2023/12/05 08:37:09;;;;;;;4.47;1.73;;;5.40;78.60;;;;;;4069400;29;20554;-80
2023/12/05 08:39:11;;;;;;;5.10;2.28;;;5.40;78.80;;;;;;4069503;29;20056;-79
2023/12/05 08:41:18;;;;;;;5.63;2.20;;;5.40;78.80;;;;;;4069884;29;20052;-79
2023/12/05 08:43:21;;;;;;;5.95;2.70;;;5.50;78.80;;;;;;4069874;29;20080;-80
2023/12/05 08:45:24;;;;;;;6.38;2.50;;;5.50;78.40;;;;;;4069874;29;20076;-81
2023/12/05 08:47:25;;;;;;;5.05;2.30;;;5.60;78.40;;;;;;4084607;29;20055;-81
2023/12/05 08:49:26;;;;;;;6.13;2.35;;;5.60;78.40;;;;;;4072788;29;20199;-81
2023/12/05 08:51:28;;;;;;;5.22;2.13;;;5.70;78.40;;;;;;4072461;29;20414;-82
2023/12/05 08:53:30;;;;;;;4.82;2.05;;;5.70;78.20;;;;;;4071425;29;20056;-82
2023/12/05 08:55:31;;;;;;;4.97;1.80;;;5.70;77.80;;;;;;4067608;29;20466;-79
2023/12/05 08:57:33;;;;;;;4.75;2.00;;;5.70;77.60;;;;;;4075095;29;20048;-79
2023/12/05 08:59:37;;;;;;;5.38;1.80;;;5.80;77.70;;;;;;4077871;29;20052;-80
2023/12/05 09:01:38;;;;;;;3.53;1.80;;;5.80;77.50;;;;;;4079375;29;20056;-79
2023/12/05 09:03:40;;;;;;;4.43;1.67;;;5.80;76.70;;;;;;4068883;29;20122;-79
2023/12/05 09:05:42;;;;;;;4.20;1.50;;;5.80;76.40;;;;;;4067805;29;20535;-80
2023/12/05 09:07:44;;;;;;;6.05;1.70;;;5.80;76.30;;;;;;4067587;29;20462;-80
2023/12/05 09:09:46;;;;;;;3.63;1.50;;;5.80;76.60;;;;;;4067482;29;20070;-80
2023/12/05 09:11:48;;;;;;;5.72;1.70;;;5.90;76.20;;;;;;4069547;29;20557;-81
2023/12/05 09:13:50;;;;;;;5.78;1.60;;;5.90;76.50;;;;;;4068080;29;20052;-83
2023/12/05 09:15:53;;;;;;;5.22;1.63;;;5.90;76.00;;;;;;4068110;29;20099;-82
2023/12/05 09:17:56;;;;;;;3.97;1.70;;;5.90;76.30;;;;;;4067916;29;20175;-82
2023/12/05 09:19:58;;;;;;;4.65;1.73;;;5.90;75.90;;;;;;4067249;29;20127;-84
2023/12/05 09:22:00;;;;;;;3.95;1.70;;;6.00;75.90;;;;;;4067495;29;20051;-81
2023/12/05 09:24:01;;;;;;;4.80;2.05;;;6.00;76.00;;;;;;4067583;29;20486;-82
2023/12/05 09:26:05;;;;;;;4.97;2.10;;;6.00;75.80;;;;;;4067449;29;20410;-83
2023/12/05 09:28:06;;;;;;;5.60;2.00;;;6.00;75.30;;;;;;4067202;29;20438;-81
2023/12/05 09:30:10;;;;;;;4.60;1.65;;;6.10;75.60;;;;;;4069910;29;20108;-81
2023/12/05 09:32:13;;;;;;;4.28;1.90;;;6.10;75.30;;;;;;4069997;29;20138;-82
2023/12/05 09:34:15;;;;;;;4.40;2.08;;;6.10;75.20;;;;;;4070540;29;20048;-80
2023/12/05 09:36:17;;;;;;;6.03;2.45;;;6.20;74.80;;;;;;4070457;29;20124;-82
2023/12/05 09:38:19;;;;;;;4.30;1.65;;;6.20;74.70;;;;;;4070651;29;20051;-81
2023/12/05 09:40:20;;;;;;;3.67;1.73;;;6.30;74.40;;;;;;4070907;29;20489;-81
2023/12/05 09:42:26;;;;;;;4.32;1.40;;;6.30;74.10;;;;;;4070419;29;20060;-83
2023/12/05 09:44:31;;;;;;;4.35;1.60;;;6.40;74.00;;;;;;4070421;29;20052;-81
2023/12/05 09:46:37;;;;;;;3.67;1.48;;;6.50;73.70;;;;;;4070189;29;20087;-83
2023/12/05 09:48:46;;;;;;;4.32;1.48;;;6.50;72.80;;;;;;4070138;29;20052;-82
2023/12/05 09:50:48;;;;;;;4.45;1.83;;;6.60;73.00;;;;;;4070649;29;20405;-82
2023/12/05 09:52:50;;;;;;;3.95;1.60;;;6.70;72.60;;;;;;4070151;29;20100;-83
2023/12/05 09:54:52;;;;;;;4.35;1.58;;;6.70;72.20;;;;;;4070094;29;20048;-81
2023/12/05 09:56:55;;;;;;;8.20;3.85;;;6.70;71.90;;;;;;4070664;29;20052;-81
2023/12/05 09:58:59;;;;;;;11.82;5.50;;;6.70;71.80;;;;;;4069009;29;20150;-83
2023/12/05 10:01:02;;;;;;;21.42;10.20;;;6.80;72.00;;;;;;4069352;29;20107;-82
2023/12/05 10:03:07;;;;;;;5.65;2.10;;;6.80;72.00;;;;;;4069384;29;20076;-81
2023/12/05 10:05:15;;;;;;;3.38;1.35;;;6.80;72.10;;;;;;4070032;29;20143;-81
2023/12/05 10:07:17;;;;;;;4.05;1.30;;;6.80;71.60;;;;;;4067739;29;20447;-81
2023/12/05 10:09:21;;;;;;;3.28;1.40;;;6.80;71.90;;;;;;4053554;29;20049;-81
2023/12/05 10:11:25;;;;;;;4.40;1.40;;;6.80;71.70;;;;;;4053893;29;20052;-81
2023/12/05 10:13:27;;;;;;;3.65;1.50;;;6.80;71.70;;;;;;4053716;29;20112;-82
2023/12/05 10:15:29;;;;;;;3.03;1.20;;;6.90;71.70;;;;;;4053689;29;20059;-82
2023/12/05 10:17:33;;;;;;;3.17;1.10;;;6.90;71.60;;;;;;4053675;29;20075;-81
2023/12/05 10:19:35;;;;;;;4.28;1.40;;;6.90;71.70;;;;;;4053731;29;20051;-83
2023/12/05 10:21:39;;;;;;;3.97;1.25;;;6.90;71.50;;;;;;4056946;29;20052;-80
2023/12/05 10:23:41;;;;;;;2.63;1.10;;;6.90;71.40;;;;;;4069343;29;20459;-82
2023/12/05 10:25:43;;;;;;;3.22;1.27;;;7.00;71.40;;;;;;4069583;29;20112;-82
2023/12/05 10:27:45;;;;;;;3.70;1.60;;;7.00;71.50;;;;;;4069654;29;20127;-81
2023/12/05 10:29:47;;;;;;;4.55;1.63;;;7.00;71.50;;;;;;4069295;29;20565;-83
2023/12/05 10:31:54;;;;;;;5.70;1.50;;;7.00;71.30;;;;;;4069149;29;20458;-81
2023/12/05 10:34:05;;;;;;;2.75;1.00;;;7.10;71.40;;;;;;4068565;29;20068;-81
2023/12/05 10:36:11;;;;;;;4.78;1.30;;;7.10;71.00;;;;;;4059517;29;20079;-80
2023/12/05 10:38:17;;;;;;;;;;;7.20;70.80;;;;;;4068966;29;20106;-79
2023/12/05 10:40:20;;;;;;;3.47;1.15;;;7.20;70.50;;;;;;4068216;29;19933;-78
2023/12/05 10:42:25;;;;;;;2.90;1.00;;;7.30;70.30;;;;;;4068542;29;20059;-81
2023/12/05 10:44:27;;;;;;;2.50;0.90;;;7.30;70.00;;;;;;4069162;29;20087;-81
2023/12/05 10:46:28;;;;;;;3.63;1.05;;;7.40;69.90;;;;;;4069024;29;20421;-80
2023/12/05 10:48:30;;;;;;;3.13;1.00;;;7.40;70.00;;;;;;4068608;29;20056;-81
2023/12/05 10:50:32;;;;;;;3.22;0.98;;;7.40;70.30;;;;;;4068508;29;20056;-80
2023/12/05 10:52:35;;;;;;;2.55;0.80;;;7.40;69.20;;;;;;4068969;29;20127;-82
2023/12/05 10:54:39;;;;;;;1.85;0.70;;;7.40;69.30;;;;;;4068726;29;20083;-82
2023/12/05 10:56:56;;;;;;;3.03;0.98;;;7.40;69.10;;;;;;4068917;29;20542;-80
2023/12/05 10:59:00;;;;;;;3.50;1.00;;;7.40;69.10;;;;;;4068095;29;20143;-84
2023/12/05 11:01:03;;;;;;;2.10;0.70;;;7.40;69.30;;;;;;4068594;29;20052;-82
2023/12/05 11:03:06;;;;;;;2.60;0.70;;;7.40;69.40;;;;;;4068934;29;20060;-81
2023/12/05 11:05:10;;;;;;;2.80;0.90;;;7.40;68.70;;;;;;4068981;29;20147;-81
2023/12/05 11:07:12;;;;;;;2.67;0.75;;;7.40;69.20;;;;;;4068502;29;20052;-83
2023/12/05 11:09:14;;;;;;;3.58;0.90;;;7.40;69.40;;;;;;4068482;29;20055;-82
2023/12/05 11:11:18;;;;;;;3.10;0.80;;;7.40;69.40;;;;;;4069239;29;20064;-83
2023/12/05 11:13:20;;;;;;;2.47;0.70;;;7.40;68.90;;;;;;4069205;29;20111;-83
2023/12/05 11:15:28;;;;;;;2.20;0.70;;;7.40;69.20;;;;;;4067844;29;20079;-81
2023/12/05 11:17:38;;;;;;;3.63;0.88;;;7.40;68.70;;;;;;4068567;29;20060;-82
2023/12/05 11:19:55;;;;;;;2.22;0.60;;;7.40;68.80;;;;;;4068290;29;20522;-82
2023/12/05 11:22:11;;;;;;;1.52;0.52;;;7.40;68.60;;;;;;4069810;29;20115;-82
2023/12/05 11:24:34;;;;;;;1.98;0.68;;;7.40;68.60;;;;;;4068768;29;20281;-80
2023/12/05 11:27:12;;;;;;;3.13;0.77;;;7.50;68.40;;;;;;4074448;29;20052;-82
2023/12/05 11:29:30;;;;;;;1.42;0.40;;;7.50;68.00;;;;;;4068200;29;20059;-81
2023/12/05 11:31:42;;;;;;;2.13;0.50;;;7.50;67.90;;;;;;4067858;29;20048;-81
2023/12/05 11:34:13;;;;;;;2.92;0.80;;;7.60;67.70;;;;;;4069326;29;20227;-81
2023/12/05 11:36:29;;;;;;;1.88;0.60;;;7.60;67.90;;;;;;4067854;29;20052;-82
2023/12/05 11:38:31;;;;;;;9.07;4.25;;;7.70;67.70;;;;;;4067079;29;20059;-80
2023/12/05 11:40:33;;;;;;;4.63;1.17;;;7.70;67.70;;;;;;4067662;29;20064;-80
2023/12/05 11:42:36;;;;;;;2.40;0.90;;;7.70;67.10;;;;;;4067380;29;20095;-80
2023/12/05 11:44:39;;;;;;;4.68;1.48;;;7.80;67.40;;;;;;4067466;29;20106;-80
2023/12/05 11:46:41;;;;;;;2.30;0.88;;;7.80;67.20;;;;;;4068053;29;20055;-81
2023/12/05 11:48:43;;;;;;;0.98;0.35;;;7.80;67.00;;;;;;4067927;29;20103;-79
2023/12/05 11:50:47;;;;;;;2.08;0.63;;;7.80;66.50;;;;;;4067934;29;20055;-79
2023/12/05 11:52:50;;;;;;;1.25;0.50;;;7.90;66.40;;;;;;4066880;29;20135;-79
2023/12/05 11:54:53;;;;;;;2.65;0.60;;;7.90;66.20;;;;;;4067392;29;20052;-80
2023/12/05 11:57:14;;;;;;;2.70;0.50;;;8.00;66.30;;;;;;4067692;29;20055;-78
2023/12/05 11:59:21;;;;;;;2.88;0.50;;;8.00;65.90;;;;;;4065724;29;20287;-77
2023/12/05 12:01:22;;;;;;;2.92;0.60;;;8.00;65.50;;;;;;4081858;29;20051;-78
2023/12/05 12:03:28;;;;;;;1.77;0.55;;;8.10;65.00;;;;;;4067957;29;20605;-79
2023/12/05 12:05:30;;;;;;;2.67;0.65;;;8.20;65.10;;;;;;4069188;29;20052;-81
2023/12/05 12:07:31;;;;;;;1.45;0.40;;;8.20;64.80;;;;;;4068782;29;20514;-78
2023/12/05 12:09:38;;;;;;;1.17;0.43;;;8.30;64.00;;;;;;4074148;29;20056;-79
2023/12/05 12:11:40;;;;;;;3.67;0.60;;;8.30;64.20;;;;;;4067910;29;20476;-78
2023/12/05 12:13:44;;;;;;;2.42;0.47;;;8.40;64.10;;;;;;4067135;29;20048;-78
2023/12/05 12:15:47;;;;;;;3.10;0.73;;;8.40;63.90;;;;;;4067049;29;20055;-79
2023/12/05 12:17:49;;;;;;;2.15;0.60;;;8.50;63.70;;;;;;4067329;29;20494;-78
2023/12/05 12:19:51;;;;;;;1.95;0.70;;;8.60;63.40;;;;;;4069581;29;20064;-78
2023/12/05 12:21:53;;;;;;;1.65;0.60;;;8.70;62.60;;;;;;4067798;29;20044;-79
2023/12/05 12:23:57;;;;;;;1.42;0.50;;;8.80;61.70;;;;;;4067079;29;20088;-79
2023/12/05 12:26:00;;;;;;;2.80;0.60;;;8.80;62.00;;;;;;4067216;29;20486;-78
2023/12/05 12:28:04;;;;;;;2.05;0.40;;;9.00;62.20;;;;;;4066646;29;20402;-79
2023/12/05 12:30:09;;;;;;;1.70;0.52;;;9.00;60.50;;;;;;4067134;29;20135;-78
2023/12/05 12:32:12;;;;;;;1.27;0.50;;;9.10;60.10;;;;;;4066767;29;20075;-80
2023/12/05 12:34:25;;;;;;;2.50;0.63;;;9.30;59.90;;;;;;4066890;29;20056;-79
2023/12/05 12:36:25;;;;;;;6.35;2.60;;;9.30;59.20;;;;;;4066886;29;20060;-79
2023/12/05 12:38:27;;;;;;;2.25;0.55;;;9.40;59.30;;;;;;4067139;29;20052;-78
2023/12/05 12:40:29;;;;;;;1.52;0.50;;;9.60;58.80;;;;;;4066962;29;20410;-77
2023/12/05 12:42:31;;;;;;;2.42;0.70;;;9.80;58.10;;;;;;4066918;29;20052;-75
2023/12/05 12:44:32;;;;;;;2.58;0.65;;;9.70;57.40;;;;;;4065427;29;20514;-79
2023/12/05 12:46:34;;;;;;;3.10;0.70;;;10.60;56.70;;;;;;4066125;29;20051;-76
2023/12/05 12:48:37;;;;;;;1.90;0.70;;;14.30;50.60;;;;;;4066712;29;20490;-76
2023/12/05 12:50:39;;;;;;;1.70;0.80;;;17.70;42.30;;;;;;4066728;29;20545;-78
2023/12/05 12:52:42;;;;;;;1.80;0.70;;;19.30;37.60;;;;;;4065782;29;20056;-76
2023/12/05 12:54:43;;;;;;;4.47;1.75;;;21.40;34.00;;;;;;4064874;29;20135;-77
2023/12/05 12:56:45;;;;;;;2.10;0.90;;;23.10;30.80;;;;;;4050881;29;20053;-78
2023/12/05 12:58:48;;;;;;;1.70;0.70;;;23.90;28.90;;;;;;4052336;29;20380;-77
2023/12/05 13:00:50;;;;;;;2.05;0.80;;;23.90;28.20;;;;;;4064162;29;20059;-77
2023/12/05 13:02:53;;;;;;;2.00;0.80;;;25.50;27.00;;;;;;4066594;29;20056;-77
2023/12/05 13:04:56;;;;;;;2.10;0.60;;;26.50;25.60;;;;;;4070753;29;20143;-78
2023/12/05 13:06:58;;;;;;;1.67;0.65;;;27.00;24.50;;;;;;4069554;29;20119;-77
2023/12/05 13:08:59;;;;;;;1.27;0.60;;;27.70;24.70;;;;;;4069219;29;20131;-77
2023/12/05 13:11:01;;;;;;;2.10;0.80;;;28.80;23.60;;;;;;4059873;29;20463;-75
2023/12/05 13:13:03;;;;;;;1.70;0.73;;;29.60;22.80;;;;;;4054066;29;20079;-76
2023/12/05 13:15:07;;;;;;;2.95;0.90;;;31.00;21.80;;;;;;4064428;29;20466;-76
2023/12/05 13:17:09;;;;;;;2.30;0.77;;;30.90;21.10;;;;;;4071050;29;20082;-76
2023/12/05 13:19:26;;;;;;;1.92;0.70;;;29.90;20.70;;;;;;4070503;29;20048;-76
2023/12/05 13:21:33;;;;;;;1.88;0.65;;;27.50;22.70;;;;;;4069244;29;20060;-76
2023/12/05 13:23:35;;;;;;;2.55;0.85;;;26.40;23.00;;;;;;4069908;29;20048;-75
2023/12/05 13:25:37;;;;;;;1.92;0.75;;;26.10;23.80;;;;;;4069177;29;20479;-75
2023/12/05 13:27:39;;;;;;;2.45;1.10;;;27.70;22.80;;;;;;4069022;29;20056;-75
2023/12/05 13:29:41;;;;;;;2.55;0.90;;;27.30;22.70;;;;;;4053526;29;20445;-76
2023/12/05 13:31:43;;;;;;;2.45;1.00;;;25.30;23.40;;;;;;4053215;29;20108;-76
2023/12/05 13:33:45;;;;;;;2.40;0.85;;;23.00;26.60;;;;;;4054762;29;20060;-76
2023/12/05 13:35:46;;;;;;;2.75;1.10;;;21.20;28.40;;;;;;4055550;29;20057;-77
2023/12/05 13:37:50;;;;;;;3.53;1.40;;;20.00;31.00;;;;;;4055211;29;20079;-77
2023/12/05 13:39:52;;;;;;;4.55;1.50;;;18.90;32.90;;;;;;4058316;29;20081;-76
2023/12/05 13:41:53;;;;;;;3.28;1.30;;;18.10;34.70;;;;;;4069000;29;20072;-77
2023/12/05 13:43:55;;;;;;;3.08;1.33;;;17.40;36.30;;;;;;4068314;29;20056;-75
2023/12/05 13:45:57;;;;;;;3.78;1.60;;;16.80;37.60;;;;;;4068421;29;20083;-78
2023/12/05 13:47:59;;;;;;;5.05;1.58;;;16.20;38.80;;;;;;4068633;29;20471;-77
2023/12/05 13:50:04;;;;;;;3.30;1.35;;;15.70;39.70;;;;;;4068479;29;20048;-77
2023/12/05 13:52:07;;;;;;;3.67;1.58;;;15.40;40.60;;;;;;4068600;29;20048;-77
2023/12/05 13:54:10;;;;;;;3.22;1.40;;;15.00;41.20;;;;;;4069024;29;20553;-79
2023/12/05 13:56:12;;;;;;;4.63;2.63;;;14.70;42.30;;;;;;4068618;29;20079;-78
2023/12/05 13:58:14;;;;;;;3.50;1.70;;;14.40;43.10;;;;;;4069140;29;20107;-78
2023/12/05 14:00:17;;;;;;;4.88;1.38;;;14.00;43.80;;;;;;4066891;29;20112;-79
2023/12/05 14:02:19;;;;;;;3.38;1.50;;;13.60;44.60;;;;;;4068736;29;20108;-78
2023/12/05 14:04:21;;;;;;;10.80;5.82;;;13.40;45.10;;;;;;4068631;29;20454;-79
2023/12/05 14:06:23;;;;;;;6.82;4.10;;;13.20;45.40;;;;;;4068873;29;20130;-78
2023/12/05 14:08:24;;;;;;;5.22;2.10;;;13.00;46.00;;;;;;4068922;29;20056;-77
2023/12/05 14:10:27;;;;;;;2.63;1.20;;;12.80;46.60;;;;;;4055654;29;20558;-76
2023/12/05 14:12:29;;;;;;;5.15;1.10;;;12.60;47.10;;;;;;4053173;29;20083;-75
2023/12/05 14:14:30;;;;;;;4.45;1.40;;;12.50;47.40;;;;;;4052628;29;20056;-78
2023/12/05 14:16:32;;;;;;;3.67;1.52;;;12.40;48.00;;;;;;4053337;29;20100;-78
2023/12/05 14:18:34;;;;;;;3.75;1.50;;;12.30;48.10;;;;;;4054067;29;20060;-78
2023/12/05 14:20:35;;;;;;;3.47;1.48;;;12.20;48.40;;;;;;4053549;29;20049;-78
2023/12/05 14:22:37;;;;;;;4.13;1.30;;;12.10;49.00;;;;;;4054075;29;20057;-78
2023/12/05 14:24:39;;;;;;;3.60;1.27;;;11.90;49.20;;;;;;4068577;29;20068;-78
2023/12/05 14:26:42;;;;;;;3.00;1.40;;;11.70;49.30;;;;;;4053551;29;20740;-78
2023/12/05 14:28:44;;;;;;;3.22;1.10;;;11.50;50.00;;;;;;4053620;29;20048;-78
2023/12/05 14:30:46;;;;;;;2.65;1.05;;;11.30;50.30;;;;;;4062761;29;20052;-78
2023/12/05 14:32:47;;;;;;;2.83;1.20;;;11.20;50.60;;;;;;4069162;29;20099;-79
2023/12/05 14:34:49;;;;;;;3.13;1.00;;;11.10;51.30;;;;;;4069197;29;20132;-77
2023/12/05 14:36:51;;;;;;;3.47;1.10;;;11.00;51.40;;;;;;4083505;29;20055;-77
2023/12/05 14:38:53;;;;;;;3.50;1.08;;;10.80;51.80;;;;;;4069018;29;20059;-76
2023/12/05 14:40:55;;;;;;;3.10;1.05;;;10.70;52.30;;;;;;4068745;29;20150;-79
2023/12/05 14:42:59;;;;;;;3.75;1.45;;;10.60;52.30;;;;;;4068853;29;20498;-79
2023/12/05 14:45:01;;;;;;;7.20;3.15;;;10.50;52.30;;;;;;4068439;29;20060;-79
2023/12/05 14:47:05;;;;;;;7.35;3.00;;;10.50;52.20;;;;;;4068553;29;20104;-78
2023/12/05 14:49:07;;;;;;;8.00;2.58;;;10.40;52.30;;;;;;4068349;29;20052;-79
2023/12/05 14:51:08;;;;;;;3.47;1.02;;;10.70;52.00;;;;;;4068501;29;20051;-79
2023/12/05 14:53:12;;;;;;;3.78;1.00;;;11.30;50.10;;;;;;4068016;29;20056;-80
2023/12/05 14:55:14;;;;;;;3.78;0.95;;;11.20;49.70;;;;;;4068373;29;20052;-78
2023/12/05 14:57:15;;;;;;;3.83;1.00;;;10.90;50.00;;;;;;4072108;29;20482;-77
2023/12/05 14:59:18;;;;;;;3.55;1.10;;;10.50;50.60;;;;;;4070835;29;20270;-78
2023/12/05 15:01:19;;;;;;;3.45;1.00;;;10.20;51.50;;;;;;4071171;29;20413;-77
2023/12/05 15:03:21;;;;;;;2.78;0.90;;;9.90;52.30;;;;;;4071647;29;20123;-76
2023/12/05 15:05:23;;;;;;;4.25;1.00;;;9.70;52.70;;;;;;4074220;29;20056;-78
2023/12/05 15:07:25;;;;;;;3.35;1.00;;;9.60;53.30;;;;;;4061397;29;20542;-80
2023/12/05 15:09:27;;;;;;;3.72;0.90;;;9.40;53.60;;;;;;4052797;29;20060;-77
2023/12/05 15:11:31;;;;;;;2.75;0.90;;;9.30;54.10;;;;;;4058668;29;20047;-76
2023/12/05 15:13:33;;;;;;;3.25;1.00;;;9.10;54.70;;;;;;4067498;29;20060;-79
2023/12/05 15:15:36;;;;;;;4.82;1.00;;;8.90;55.00;;;;;;4067653;29;20044;-78
2023/12/05 15:17:40;;;;;;;3.72;0.95;;;8.80;55.90;;;;;;4067647;29;20079;-79
2023/12/05 15:19:41;;;;;;;4.63;1.10;;;8.70;55.90;;;;;;4067621;29;20407;-80
2023/12/05 15:21:43;;;;;;;4.00;0.90;;;8.70;56.30;;;;;;4066409;29;20127;-78
2023/12/05 15:23:44;;;;;;;3.20;0.85;;;8.60;56.50;;;;;;4067935;29;20056;-78
2023/12/05 15:25:46;;;;;;;3.58;0.90;;;8.50;56.90;;;;;;4067425;29;20052;-79
2023/12/05 15:27:48;;;;;;;3.65;1.10;;;8.40;57.00;;;;;;4066698;29;20048;-80
2023/12/05 15:29:51;;;;;;;4.15;0.95;;;8.40;57.20;;;;;;4067878;29;20521;-77
2023/12/05 15:31:56;;;;;;;4.53;1.98;;;8.40;57.30;;;;;;4066744;29;20051;-77
2023/12/05 15:33:57;;;;;;;3.55;0.80;;;8.40;57.40;;;;;;4067710;29;20350;-77
2023/12/05 15:35:59;;;;;;;4.40;1.50;;;8.30;57.40;;;;;;4067301;29;20056;-78
2023/12/05 15:38:00;;;;;;;5.93;1.05;;;8.30;57.80;;;;;;4068403;29;20056;-78
2023/12/05 15:40:04;;;;;;;3.75;1.15;;;8.20;57.90;;;;;;4069049;29;20083;-79
2023/12/05 15:42:07;;;;;;;4.18;0.90;;;8.20;58.00;;;;;;4067180;29;20059;-80
2023/12/05 15:44:09;;;;;;;3.15;0.95;;;8.20;58.40;;;;;;4067059;29;20103;-78
2023/12/05 15:46:21;;;;;;;3.40;1.17;;;8.10;58.10;;;;;;4066994;29;20060;-79
2023/12/05 15:48:24;;;;;;;4.35;1.00;;;8.00;59.10;;;;;;4067721;29;20417;-80
2023/12/05 15:50:26;;;;;;;2.95;0.93;;;8.00;58.80;;;;;;4068594;29;20454;-80
2023/12/05 15:52:28;;;;;;;3.67;1.20;;;7.90;59.00;;;;;;4062320;29;20057;-81
2023/12/05 15:54:32;;;;;;;4.65;1.23;;;7.80;59.00;;;;;;4053198;29;20403;-81
2023/12/05 15:56:35;;;;;;;5.97;1.23;;;7.90;59.30;;;;;;4052690;29;20135;-80
2023/12/05 15:58:37;;;;;;;4.43;1.90;;;7.80;59.40;;;;;;4061236;29;20122;-80
2023/12/05 16:00:39;;;;;;;5.38;1.70;;;7.80;59.40;;;;;;4065689;29;20426;-80
2023/12/05 16:02:42;;;;;;;4.45;1.70;;;7.80;59.70;;;;;;4067712;29;20059;-78
2023/12/05 16:04:45;;;;;;;4.53;1.55;;;7.80;60.00;;;;;;4067855;29;20446;-80
2023/12/05 16:06:46;;;;;;;4.28;1.15;;;7.80;60.30;;;;;;4066853;29;20550;-80
2023/12/05 16:08:48;;;;;;;4.63;1.40;;;7.70;60.90;;;;;;4068196;29;20051;-78
2023/12/05 16:10:50;;;;;;;3.75;1.27;;;7.70;61.30;;;;;;4066984;29;20048;-79
2023/12/05 16:12:52;;;;;;;3.08;1.38;;;7.50;61.90;;;;;;4067972;29;20052;-81
2023/12/05 16:14:54;;;;;;;3.70;1.42;;;7.50;62.30;;;;;;4082564;29;20433;-81
2023/12/05 16:16:56;;;;;;;3.13;1.50;;;7.50;62.60;;;;;;4067352;29;20458;-79
2023/12/05 16:18:58;;;;;;;4.00;1.50;;;7.50;62.90;;;;;;4067635;29;20052;-81
2023/12/05 16:21:01;;;;;;;3.30;1.30;;;7.50;63.00;;;;;;4067443;29;20080;-80
2023/12/05 16:23:03;;;;;;;5.55;1.65;;;7.50;63.10;;;;;;4067729;29;20493;-78
2023/12/05 16:25:06;;;;;;;5.35;1.85;;;7.50;63.00;;;;;;4067981;29;20107;-80
2023/12/05 16:27:08;;;;;;;4.45;1.55;;;7.50;63.20;;;;;;4067732;29;20055;-79
2023/12/05 16:29:10;;;;;;;4.00;1.23;;;7.50;63.50;;;;;;4067586;29;20548;-79
2023/12/05 16:31:12;;;;;;;4.25;1.60;;;7.50;63.30;;;;;;4067383;29;20545;-80
2023/12/05 16:33:14;;;;;;;3.50;1.40;;;7.50;63.50;;;;;;4067206;29;20052;-80
2023/12/05 16:35:16;;;;;;;5.72;1.73;;;7.50;63.40;;;;;;4058535;29;20057;-79
2023/12/05 16:37:20;;;;;;;4.57;1.70;;;7.40;63.70;;;;;;4058115;29;20064;-80
2023/12/05 16:39:21;;;;;;;6.28;2.90;;;7.30;64.00;;;;;;4069864;29;20504;-78
2023/12/05 16:41:25;;;;;;;4.55;2.05;;;7.30;64.40;;;;;;4070536;29;20052;-79
2023/12/05 16:43:27;;;;;;;13.68;6.80;;;7.30;64.30;;;;;;4070522;29;20044;-80
2023/12/05 16:45:29;;;;;;;6.07;1.98;;;7.20;64.50;;;;;;4070447;29;20048;-81
2023/12/05 16:47:30;;;;;;;4.57;1.85;;;7.20;64.60;;;;;;4070476;29;20751;-81